Portada
METAR-TAF:

METAR-TAF

Aeroports :

Luni

Sarzana, Itàlia

latitud: 44-05N, longitud: 009-59E, altitud: 9 m

METAR: manca

Hora: 16:43 (14:43 UTC)

Pronòstic

L'informe es va fer fa 27 hores i 43 minuts, a les 11:00 UTC
Pronòstic vàlid del 05 a les 12 UTC al 05 a les 21 UTC
Vent 10 kt del Sud-Est
Visibilitat 10 km o més
Núvols disperses a una alçada de 2000 ft
Núvols disperses a una alçada de 4000 ft
Temporalment
l' 05 a les 12 UTC al 05 a les 17 UTC
Visibilitat: 5000 m
Escasses núvols a una alçada de 1500 ft, Cumulus congestus.
Cel ennuvolat a una alçada de 2000 ft
pluja

TAF: LIQW 051100Z 0512/0521 14010KT 9999 SCT020 SCT040 TEMPO 0512/0517 5000 RA FEW015TCU BKN020

Observacions i pronòstics meteorològics de més de 4000 aeroports (METAR i TAF).

Les estacions disponibles són els punts grocs i vermells al mapa.

Posi el ratolí al punt desitjat per veure el nom de l'estació.

Feu clic per veure les observacions i els pronòstics meteorològics.

Per canviar el mapa: feu clic els botons verds amb una creu de color negre per apropar; al botó verd amb un guió per allunyar la imatge; o en les fletxes verdes per a mapes adjacents.


METAR-TAF: